Final Examination Schedule

Spring 2017 schedule not yet available.

 

Fall 2016:

CRN Course   Instructor Final Exam Date   Time   Room  
80783 1113 A1 Jankowski C Thursday 12/15/2016 11:30 AM 2:20 PM Skiles 202
89626 1113 A2 Jankowski C Thursday 12/15/2016 11:30 AM 2:20 PM Skiles 202
89475 1551 B Kerchev G Monday 12/12/2016 8:00 AM 10:50 AM Skiles 202
90929 1551 B1 Bolding M Monday 12/12/2016 8:00 AM 10:50 AM Skiles 268
89402 1551 C Vela-Arevalo L Monday 12/12/2016 11:30 AM 2:20 PM Skiles 202
89476 1551 D Leverson C Friday 12/9/2016 8:00 AM 10:50 AM Mason 3133
89403 1551 E Liu Y Wednesday 12/14/2016 8:00 AM 10:50 AM Mason 3133
89477 1551 F Culiuc A Friday 12/9/2016 11:30 AM 2:20 PM Skiles 249
89478 1551 G Kesler R Monday 12/12/2016 2:50 PM 5:40 PM Skiles 202
89435 1551 H Dever J Friday 12/9/2016 11:30 AM 2:20 PM Skiles 202
89446 1551 K Corsi L Wednesday 12/14/2016 11:30 AM 2:20 PM Skiles 249
89479 1551 L Lin Z Friday 12/9/2016 2:50 PM 5:40 PM Skiles 202
89480 1551 N Hoyer A Friday 12/9/2016 8:00 AM 10:50 AM Coll of Compu 102
89481 1551 N1 Paprocki J Wednesday 12/14/2016 2:50 PM 5:40 PM Skiles 249
90844 1552 A1 Ralli P Monday 12/12/2016 8:00 AM 10:50 AM Instr Center 103
90847 1552 A2 Ralli P Monday 12/12/2016 8:00 AM 10:50 AM Instr Center 103
89316 1552 D1 Grodzinsky K Thursday 12/8/2016 2:50 PM 5:40 PM Howey (Physic L2
89510 1552 D2 Grodzinsky K Thursday 12/8/2016 2:50 PM 5:40 PM Howey (Physic L2
89511 1552 D3 Grodzinsky K Thursday 12/8/2016 2:50 PM 5:40 PM Howey (Physic L2
89483 1552 E1 Greenwood T Friday 12/9/2016 11:30 AM 2:20 PM Coll of Compu 16
89624 1552 E2 Greenwood T Friday 12/9/2016 11:30 AM 2:20 PM Coll of Compu 16
89625 1552 E3 Greenwood T Friday 12/9/2016 11:30 AM 2:20 PM Coll of Compu 16
89407 1552 F1 Smith H Thursday 12/15/2016 11:30 AM 2:20 PM Howey (Physic L2
89614 1552 F2 Smith H Thursday 12/15/2016 11:30 AM 2:20 PM Howey (Physic L2
89617 1552 F3 Smith H Thursday 12/15/2016 11:30 AM 2:20 PM Howey (Physic L2
89482 1552 G1 Bernstein M Monday 12/12/2016 2:50 PM 5:40 PM Howey (Physic L2
89620 1552 G2 Bernstein M Monday 12/12/2016 2:50 PM 5:40 PM Howey (Physic L2
89484 1552 H1 Jin J Monday 12/12/2016 11:30 AM 2:20 PM Howey (Physic L3
89618 1552 H2 Jin J Monday 12/12/2016 11:30 AM 2:20 PM Howey (Physic L3
90991 1552 H3 Jin J Monday 12/12/2016 11:30 AM 2:20 PM Howey (Physic L3
89320 1552 K1 Chen J Thursday 12/15/2016 2:50 PM 5:40 PM Howey (Physic L3
89610 1552 K2 Chen J Thursday 12/15/2016 2:50 PM 5:40 PM Howey (Physic L3
89612 1552 K3 Chen J Thursday 12/15/2016 2:50 PM 5:40 PM Howey (Physic L3
89409 1552 L1 Le T Tuesday 12/13/2016 2:50 PM 5:40 PM Howey (Physic L3
89606 1552 L2 Le T Tuesday 12/13/2016 2:50 PM 5:40 PM Howey (Physic L3
89485 1552 N1 Jin J Friday 12/9/2016 8:00 AM 10:50 AM Instr Center 105
89602 1552 N2 Jin J Friday 12/9/2016 8:00 AM 10:50 AM Instr Center 105
89486 1553 A1 Souza A Monday 12/12/2016 8:00 AM 10:50 AM Instr Center 105
91021 1553 A2 Souza A Monday 12/12/2016 8:00 AM 10:50 AM Instr Center 105
91022 1553 A3 Souza A Monday 12/12/2016 8:00 AM 10:50 AM Instr Center 105
91023 1553 B1 Rabinoff J Friday 12/9/2016 8:00 AM 10:50 AM Instr Center 103
91024 1553 B2 Rabinoff J Friday 12/9/2016 8:00 AM 10:50 AM Instr Center 103
91025 1553 B3 Rabinoff J Friday 12/9/2016 8:00 AM 10:50 AM Instr Center 103
89411 1553 B4 Rabinoff J Friday 12/9/2016 8:00 AM 10:50 AM Instr Center 103
91026 1553 D1 Short M Monday 12/12/2016 11:30 AM 2:20 PM Coll of Compu 16
91027 1553 D2 Short M Monday 12/12/2016 11:30 AM 2:20 PM Coll of Compu 16
89401 1553 D3 Short M Monday 12/12/2016 11:30 AM 2:20 PM Coll of Compu 16
91091 1553 D4 Short M Monday 12/12/2016 11:30 AM 2:20 PM Coll of Compu 16
92025 1553 D5 Short M Monday 12/12/2016 11:30 AM 2:20 PM Coll of Compu 16
91028 1553 F1 Barone S Friday 12/9/2016 11:30 AM 2:20 PM D. M. Smith 105
91029 1553 F2 Barone S Friday 12/9/2016 11:30 AM 2:20 PM D. M. Smith 105
91030 1553 F3 Barone S Friday 12/9/2016 11:30 AM 2:20 PM D. M. Smith 105
89412 1553 F4 Barone S Friday 12/9/2016 11:30 AM 2:20 PM D. M. Smith 105
92026 1553 F5 Barone S Friday 12/9/2016 11:30 AM 2:20 PM D. M. Smith 105
89327 1553 G1 Hani Z Monday 12/12/2016 2:50 PM 5:40 PM Clough Underg 152
91031 1553 G2 Hani Z Monday 12/12/2016 2:50 PM 5:40 PM Clough Underg 152
91032 1553 G3 Hani Z Monday 12/12/2016 2:50 PM 5:40 PM Clough Underg 152
91033 1553 G4 Hani Z Monday 12/12/2016 2:50 PM 5:40 PM Clough Underg 152
91034 1553 H1 Barone S Wednesday 12/14/2016 8:00 AM 10:50 AM D. M. Smith 105
91035 1553 H2 Barone S Wednesday 12/14/2016 8:00 AM 10:50 AM D. M. Smith 105
91036 1553 H3 Barone S Wednesday 12/14/2016 8:00 AM 10:50 AM D. M. Smith 105
89322 1553 H4 Barone S Wednesday 12/14/2016 8:00 AM 10:50 AM D. M. Smith 105
92027 1553 H5 Barone S Wednesday 12/14/2016 8:00 AM 10:50 AM D. M. Smith 105
90959 1553 J1 Frederick C Monday 12/12/2016 2:50 PM 5:40 PM Howey (Physic L3
91049 1553 J2 Frederick C Monday 12/12/2016 2:50 PM 5:40 PM Howey (Physic L3
91050 1553 J3 Frederick C Monday 12/12/2016 2:50 PM 5:40 PM Howey (Physic L3
91051 1553 J4 Frederick C Monday 12/12/2016 2:50 PM 5:40 PM Howey (Physic L3
92028 1553 J5 Frederick C Monday 12/12/2016 2:50 PM 5:40 PM Howey (Physic L3
91037 1553 K1 Northington M Wednesday 12/14/2016 11:30 AM 2:20 PM Instr Center 205
91038 1553 K2 Northington M Wednesday 12/14/2016 11:30 AM 2:20 PM Instr Center 205
89398 1553 K3 Northington M Wednesday 12/14/2016 11:30 AM 2:20 PM Instr Center 205
91039 1553 M1 Srinivasan P Friday 12/9/2016 2:50 PM 5:40 PM D. M. Smith 105
91040 1553 M2 Srinivasan P Friday 12/9/2016 2:50 PM 5:40 PM D. M. Smith 105
91041 1553 M3 Srinivasan P Friday 12/9/2016 2:50 PM 5:40 PM D. M. Smith 105
91042 1553 N1 Strenner B Friday 12/9/2016 8:00 AM 10:50 AM Howey (Physic L2
91043 1553 N2 Strenner B Friday 12/9/2016 8:00 AM 10:50 AM Howey (Physic L2
91044 1553 N3 Strenner B Friday 12/9/2016 8:00 AM 10:50 AM Howey (Physic L2
91045 1553 T1 Prag T Wednesday 12/14/2016 2:50 PM 5:40 PM D. M. Smith 105
91046 1553 T2 Prag T Wednesday 12/14/2016 2:50 PM 5:40 PM D. M. Smith 105
89434 1553 T3 Prag T Wednesday 12/14/2016 2:50 PM 5:40 PM D. M. Smith 105
89408 1554 A1 Lacey M Monday 12/12/2016 8:00 AM 10:50 AM Clough Underg 152
90985 1554 A2 Lacey M Monday 12/12/2016 8:00 AM 10:50 AM Clough Underg 152
90986 1554 A3 Lacey M Monday 12/12/2016 8:00 AM 10:50 AM Clough Underg 152
90987 1554 A4 Lacey M Monday 12/12/2016 8:00 AM 10:50 AM Clough Underg 152
89318 1554 B1 Mayer G Monday 12/12/2016 8:00 AM 10:50 AM Klaus 1443
90989 1554 B2 Mayer G Monday 12/12/2016 8:00 AM 10:50 AM Klaus 1443
90990 1554 B3 Mayer G Monday 12/12/2016 8:00 AM 10:50 AM Klaus 1443
90958 1554 D1 Belegradek I Thursday 12/8/2016 2:50 PM 5:40 PM Howey (Physic L1
89596 1554 D2 Belegradek I Thursday 12/8/2016 2:50 PM 5:40 PM Howey (Physic L1
89599 1554 D3 Belegradek I Thursday 12/8/2016 2:50 PM 5:40 PM Howey (Physic L1
89319 1554 F1 Belegradek I Thursday 12/15/2016 11:30 AM 2:20 PM Instr Center 103
89586 1554 F2 Belegradek I Thursday 12/15/2016 11:30 AM 2:20 PM Instr Center 103
89410 1554 F3 Belegradek I Thursday 12/15/2016 11:30 AM 2:20 PM Instr Center 103
89315 1554 K1 Garoufalidis S Thursday 12/15/2016 2:50 PM 5:40 PM Howey (Physic L2
89583 1554 K2 Garoufalidis S Thursday 12/15/2016 2:50 PM 5:40 PM Howey (Physic L2
89595 1554 K3 Garoufalidis S Thursday 12/15/2016 2:50 PM 5:40 PM Howey (Physic L2
89593 1554 K4 Garoufalidis S Thursday 12/15/2016 2:50 PM 5:40 PM Howey (Physic L2
89313 1564 K1 Nitzan S Thursday 12/15/2016 2:50 PM 5:40 PM Instr Center 103
89582 1564 K2 Nitzan S Thursday 12/15/2016 2:50 PM 5:40 PM Instr Center 103
92021 1564 K3 Nitzan S Thursday 12/15/2016 2:50 PM 5:40 PM Instr Center 103
81594 1711 G1 Spencer T Monday 12/12/2016 2:50 PM 5:40 PM Coll of Compu 16
81599 1711 G2 Spencer T Monday 12/12/2016 2:50 PM 5:40 PM Coll of Compu 16
81730 1711 G3 Delchev Y Monday 12/12/2016 2:50 PM 5:40 PM Klaus 2443
91923 1711 G4 Delchev Y Monday 12/12/2016 2:50 PM 5:40 PM Klaus 2443
80720 1712 B1 Ide B Thursday 12/8/2016 2:50 PM 5:40 PM Coll of Compu 16
80721 1712 B2 Ide B Thursday 12/8/2016 2:50 PM 5:40 PM Coll of Compu 16
89581 1712 B3 Ide B Thursday 12/8/2016 2:50 PM 5:40 PM Coll of Compu 16
89299 2106 A Yu J Monday 12/12/2016 11:30 AM 2:20 PM Skiles 268
90857 2550 C1 Celaya M Friday 12/9/2016 8:00 AM 10:50 AM Instr Center 205
91255 2550 C2 Celaya M Friday 12/9/2016 8:00 AM 10:50 AM Instr Center 205
90858 2550 G1 Lin Z Monday 12/12/2016 2:50 PM 5:40 PM Instr Center 103
91254 2550 G2 Lin Z Monday 12/12/2016 2:50 PM 5:40 PM Instr Center 103
91138 2550 H1 Lin Z Wednesday 12/14/2016 8:00 AM 10:50 AM Klaus 1456
91257 2550 H2 Lin Z Wednesday 12/14/2016 8:00 AM 10:50 AM Klaus 1456
90859 2550 M1 Hom J Friday 12/9/2016 2:50 PM 5:40 PM Howey (Physic L1
91259 2550 M2 Hom J Friday 12/9/2016 2:50 PM 5:40 PM Howey (Physic L1
89405 2551 B1 Mena Arias D Thursday 12/15/2016 8:00 AM 10:50 AM Howey (Physic L2
89578 2551 B2 Mena Arias D Thursday 12/15/2016 8:00 AM 10:50 AM Howey (Physic L2
89579 2551 B3 Mena Arias D Thursday 12/15/2016 8:00 AM 10:50 AM Howey (Physic L2
89406 2551 D1 Engman M Thursday 12/8/2016 2:50 PM 5:40 PM Howey (Physic L4
89575 2551 D2 Engman M Thursday 12/8/2016 2:50 PM 5:40 PM Howey (Physic L4
89576 2551 D3 Engman M Thursday 12/8/2016 2:50 PM 5:40 PM Howey (Physic L4
89577 2551 D4 Engman M Thursday 12/8/2016 2:50 PM 5:40 PM Howey (Physic L4
89317 2551 E1 Pan R Friday 12/9/2016 11:30 AM 2:20 PM Instr Center 103
89548 2551 E2 Pan R Friday 12/9/2016 11:30 AM 2:20 PM Instr Center 103
89549 2551 E3 Pan R Friday 12/9/2016 11:30 AM 2:20 PM Instr Center 103
89550 2551 E4 Pan R Friday 12/9/2016 11:30 AM 2:20 PM Instr Center 103
89488 2551 H1 Liu Y Thursday 12/15/2016 11:30 AM 2:20 PM Howey (Physic L3
89546 2551 H2 Liu Y Thursday 12/15/2016 11:30 AM 2:20 PM Howey (Physic L3
89547 2551 H3 Liu Y Thursday 12/15/2016 11:30 AM 2:20 PM Howey (Physic L3
89312 2551 K1 Geronimo J Thursday 12/15/2016 2:50 PM 5:40 PM Howey (Physic L4
89543 2551 K2 Geronimo J Thursday 12/15/2016 2:50 PM 5:40 PM Howey (Physic L4
89544 2551 K3 Geronimo J Thursday 12/15/2016 2:50 PM 5:40 PM Howey (Physic L4
89399 2551 L1 Yashtini M Tuesday 12/13/2016 2:50 PM 5:40 PM Howey (Physic L2
89541 2551 L2 Yashtini M Tuesday 12/13/2016 2:50 PM 5:40 PM Howey (Physic L2
91531 2551 L3 Yashtini M Tuesday 12/13/2016 2:50 PM 5:40 PM Howey (Physic L2
89489 2551 M1 Swiech A Friday 12/9/2016 2:50 PM 5:40 PM Howey (Physic L2
89539 2551 M2 Swiech A Friday 12/9/2016 2:50 PM 5:40 PM Howey (Physic L2
91532 2551 M3 Swiech A Friday 12/9/2016 2:50 PM 5:40 PM Howey (Physic L2
89404 2552 C1 Viana Camejo M Friday 12/9/2016 8:00 AM 10:50 AM Howey (Physic L3
89536 2552 C2 Viana Camejo M Friday 12/9/2016 8:00 AM 10:50 AM Howey (Physic L3
89537 2552 C3 Viana Camejo M Friday 12/9/2016 8:00 AM 10:50 AM Howey (Physic L3
89325 2552 D1 Dieci L Thursday 12/8/2016 2:50 PM 5:40 PM Clough Underg 144
89534 2552 D2 Dieci L Thursday 12/8/2016 2:50 PM 5:40 PM Clough Underg 144
89535 2552 D3 Dieci L Thursday 12/8/2016 2:50 PM 5:40 PM Clough Underg 144
89490 2552 D4 Dieci L Thursday 12/8/2016 2:50 PM 5:40 PM Clough Underg 144
89323 2552 F1 Kang S Thursday 12/15/2016 11:30 AM 2:20 PM Coll of Compu 16
89532 2552 F2 Kang S Thursday 12/15/2016 11:30 AM 2:20 PM Coll of Compu 16
89533 2552 F3 Kang S Thursday 12/15/2016 11:30 AM 2:20 PM Coll of Compu 16
89491 2552 F4 Kang S Thursday 12/15/2016 11:30 AM 2:20 PM Coll of Compu 16
89311 2552 G1 Chen X Wednesday 12/14/2016 8:00 AM 10:50 AM Howey (Physic L2
89529 2552 G2 Chen X Wednesday 12/14/2016 8:00 AM 10:50 AM Howey (Physic L2
89530 2552 G3 Chen X Wednesday 12/14/2016 8:00 AM 10:50 AM Howey (Physic L2
89531 2552 G4 Chen X Wednesday 12/14/2016 8:00 AM 10:50 AM Howey (Physic L2
89326 2552 H1 Kunwar I Thursday 12/15/2016 2:50 PM 5:40 PM Instr Center 105
89433 2552 H2 Kunwar I Thursday 12/15/2016 2:50 PM 5:40 PM Instr Center 105
92024 2552 H3 Kunwar I Thursday 12/15/2016 2:50 PM 5:40 PM Instr Center 105
89321 2552 K1 Kang S Thursday 12/15/2016 2:50 PM 5:40 PM Clough Underg 144
89527 2552 K2 Kang S Thursday 12/15/2016 2:50 PM 5:40 PM Clough Underg 144
89528 2552 K3 Kang S Thursday 12/15/2016 2:50 PM 5:40 PM Clough Underg 144
89324 2552 L1 Zeng C Tuesday 12/13/2016 6:00 PM 8:50 PM Instr Center 103
89521 2552 L2 Zeng C Tuesday 12/13/2016 6:00 PM 8:50 PM Instr Center 103
89522 2552 L3 Zeng C Tuesday 12/13/2016 6:00 PM 8:50 PM Instr Center 103
90197 2552 L4 Zeng C Tuesday 12/13/2016 6:00 PM 8:50 PM Instr Center 103
89310 2552 M1 Chen X Wednesday 12/14/2016 11:30 AM 2:20 PM Howey (Physic L2
89517 2552 M2 Chen X Wednesday 12/14/2016 11:30 AM 2:20 PM Howey (Physic L2
89518 2552 M3 Chen X Wednesday 12/14/2016 11:30 AM 2:20 PM Howey (Physic L2
90198 2552 M4 Chen X Wednesday 12/14/2016 11:30 AM 2:20 PM Howey (Physic L2
90965 2562 L De la Llave R Tuesday 12/13/2016 2:50 PM 5:40 PM Skiles 170
89308 2603 G1 Le T Thursday 12/15/2016 2:50 PM 5:40 PM D. M. Smith 105
89516 2603 G2 Le T Thursday 12/15/2016 2:50 PM 5:40 PM D. M. Smith 105
89515 2603 G3 Le T Thursday 12/15/2016 2:50 PM 5:40 PM D. M. Smith 105
89309 2603 L1 Jankowski C Tuesday 12/13/2016 2:50 PM 5:40 PM Howey (Physic L4
89513 2603 L2 Jankowski C Tuesday 12/13/2016 2:50 PM 5:40 PM Howey (Physic L4
89514 2603 L3 Jankowski C Tuesday 12/13/2016 2:50 PM 5:40 PM Howey (Physic L4
80727 3012 B Barrera-Cruz F Thursday 12/15/2016 8:00 AM 10:50 AM Skiles 202
81202 3012 H Ezra E Wednesday 12/14/2016 8:00 AM 10:50 AM Skiles 202
91183 3012 HP Trotter W Wednesday 12/14/2016 8:00 AM 10:50 AM Hefner Dormit 1
81731 3012 M Ezra E Wednesday 12/14/2016 11:30 AM 2:20 PM Skiles 202
87755 3012 N Croot E Friday 12/9/2016 8:00 AM 10:50 AM Skiles 202
80728 3215 H Subramanian S Thursday 12/15/2016 11:30 AM 2:20 PM Skiles 249
80730 3215 J Subramanian S Thursday 12/8/2016 2:50 PM 5:40 PM Skiles 202
87445 3215 L Geronimo J Tuesday 12/13/2016 2:50 PM 5:40 PM Instr Center 217
87414 3225 H Houdre C Thursday 12/15/2016 2:50 PM 5:40 PM Skiles 169
91095 3406 A Leykin A Thursday 12/15/2016 2:50 PM 5:40 PM Clough Underg 423
91707 3406 B Li W Tuesday 12/13/2016 2:50 PM 5:40 PM Skiles 256
88209 3670 D Matzinger H Friday 12/9/2016 2:50 PM 5:40 PM Coll of Compu 17
88210 3670 K Popescu I Thursday 12/15/2016 2:50 PM 5:40 PM Skiles 202
88211 3670 N Liu Q Friday 12/9/2016 8:00 AM 10:50 AM Skiles 249
91900 4022 NG Tetali P Friday 12/9/2016 2:50 PM 5:40 PM Skiles 268
91901 4022 NU Tetali P Friday 12/9/2016 2:50 PM 5:40 PM Skiles 268
81931 4107 AG Yu J Wednesday 12/14/2016 11:30 AM 2:20 PM Skiles 171
80784 4107 AU Yu J Wednesday 12/14/2016 11:30 AM 2:20 PM Skiles 171
89302 4221 AG Matzinger H Wednesday 12/14/2016 2:50 PM 5:40 PM Skiles 255
89303 4221 AU Matzinger H Wednesday 12/14/2016 2:50 PM 5:40 PM Skiles 255
82035 4261 AG Zhilova M Monday 12/12/2016 11:30 AM 2:20 PM Sustainable E 110
80731 4261 AU Zhilova M Monday 12/12/2016 11:30 AM 2:20 PM Sustainable E 110
80734 4305 BG Pan R Wednesday 12/14/2016 11:30 AM 2:20 PM Weber SST III 1
80732 4305 BU Pan R Wednesday 12/14/2016 11:30 AM 2:20 PM Weber SST III 1
81969 4317 AG Heitsch C Monday 12/12/2016 11:30 AM 2:20 PM Skiles 255
80735 4317 AU Heitsch C Monday 12/12/2016 11:30 AM 2:20 PM Skiles 255
82071 4317 BG Garoufalidis S Thursday 12/15/2016 11:30 AM 2:20 PM Skiles 255
82070 4317 BU Garoufalidis S Thursday 12/15/2016 11:30 AM 2:20 PM Skiles 255
80737 4318 A De la Llave R Thursday 12/15/2016 2:50 PM 5:40 PM Howey (Physic S204
82036 4320 AG Iliev P Wednesday 12/14/2016 8:00 AM 10:50 AM Skiles 256
80738 4320 AU Iliev P Wednesday 12/14/2016 8:00 AM 10:50 AM Skiles 256
82037 4347 AG Hani Z Friday 12/9/2016 8:00 AM 10:50 AM Instr Center 219
80740 4347 AU Hani Z Friday 12/9/2016 8:00 AM 10:50 AM Instr Center 219
80741 4431 A Etnyre J Friday 12/9/2016 11:30 AM 2:20 PM Skiles 171
82073 4441 AG Etnyre J Friday 12/9/2016 2:50 PM 5:40 PM Skiles 171
82072 4441 AU Etnyre J Friday 12/9/2016 2:50 PM 5:40 PM Skiles 171
82038 4541 AG Weiss H Thursday 12/15/2016 2:50 PM 5:40 PM Architecture 309
80742 4541 AU Weiss H Thursday 12/15/2016 2:50 PM 5:40 PM Architecture 309
85421 4581 BG Tao M Tuesday 12/13/2016 2:50 PM 5:40 PM Sustainable E 110
85420 4581 BU Tao M Tuesday 12/13/2016 2:50 PM 5:40 PM Sustainable E 110
89721 4640 AG Park H Thursday 12/15/2016 2:50 PM 5:40 PM Love (MRDC II 184
89722 4640 AU Park H Thursday 12/15/2016 2:50 PM 5:40 PM Love (MRDC II 184
90931 4777 AG Lefton L Tuesday 12/13/2016 2:50 PM 5:40 PM Skiles 270
90932 4777 AU Lefton L Tuesday 12/13/2016 2:50 PM 5:40 PM Skiles 270
83955 4802 LIV Livshyts G Tuesday 12/13/2016 2:50 PM 5:40 PM Skiles 171
91838 6001 A Engman M Friday 12/9/2016 8:00 AM 10:50 AM Skiles 169
80747 6014 A Thomas R Tuesday 12/13/2016 2:50 PM 5:40 PM Skiles 246
90288 6112 A Dieci L Tuesday 12/13/2016 6:00 PM 8:50 PM Skiles 257
80748 6121 A Wickelgren K Thursday 12/8/2016 2:50 PM 5:40 PM Skiles 257
87745 6241 A Livshyts G Thursday 12/15/2016 11:30 AM 2:20 PM Skiles 270
85446 6263 A Matzinger H Friday 12/9/2016 11:30 AM 2:20 PM Cherry Emerso 320
80751 6307 A Bonetto F Monday 12/12/2016 11:30 AM 2:20 PM Skiles 257
83748 6337 A Heil C Friday 12/9/2016 2:50 PM 5:40 PM Skiles 246
80752 6341 A Yao Y Thursday 12/15/2016 2:50 PM 5:40 PM Skiles 270
88582 6452 A Ghomi M Monday 12/12/2016 2:50 PM 5:40 PM Skiles 257
88238 6514 A Short M Monday 12/12/2016 2:50 PM 5:40 PM Skiles 268
80754 6580 A Swiech A Wednesday 12/14/2016 8:00 AM 10:50 AM Skiles 270
80757 6640 A Liu Y Tuesday 12/13/2016 2:50 PM 5:40 PM Engr Science 212
80756 6643 A Li W Thursday 12/15/2016 2:50 PM 5:40 PM Weber SST III 1
86906 6644 A Zha H Thursday 12/15/2016 11:30 AM 2:20 PM Clough Underg 423
80755 6701 A Chen X Friday 12/9/2016 2:50 PM 5:40 PM Klaus 1456
81497 6705 A Bunimovich L Thursday 12/8/2016 2:50 PM 5:40 PM Skiles 169
81444 6759 A Deng S Friday 12/9/2016 2:50 PM 5:40 PM ISYE Annex 228
88724 6761 A Ayhan H Thursday 12/8/2016 2:50 PM 5:40 PM Klaus 2447
84251 6767 A Deng S Wednesday 12/14/2016 8:00 AM 10:50 AM Bunger-Henry 380
91657 6785 NEW Chava S         College of Bu 101
88271 7244 A Damron M Thursday 12/15/2016 11:30 AM 2:20 PM Skiles 257
90933 7338 A Loss M Thursday 12/15/2016 11:30 AM 2:20 PM Skiles 269
83344 8305 A Burke M Wednesday 12/14/2016 8:00 AM 10:50 AM Skiles 171
89307 8307 A Burke M Monday 12/12/2016 11:30 AM 2:20 PM Skiles 171
89298 8803 LAC Lacey M Monday 12/12/2016 11:30 AM 2:20 PM Skiles 271
89497 8803 LUB Lubinsky D Friday 12/9/2016 8:00 AM 10:50 AM Instr Center 107
89297 8803 SIN Sinn R Wednesday 12/14/2016 8:00 AM 10:50 AM D. M. Smith 207